Time;durP1;ratioP1;P1;durP2;ratioP2;P2;SDS_P1;SDS_P2;PMS_P1;PMS_P2;Temp;Humidity;BMP_temperature;BMP_pressure;BME280_temperature;BME280_humidity;BME280_pressure;Samples;Min_cycle;Max_cycle;Signal;HPM_P1;HPM_P2
2021/10/27 00:09:36;;;;;;;7.28;3.95;;;9.60;99.90;;;;;;5054443;28;20524;-65
2021/10/27 00:12:02;;;;;;;9.50;4.07;;;9.60;99.90;;;;;;5038346;28;20088;-65
2021/10/27 00:14:28;;;;;;;;;;;9.70;99.90;;;;;;5039558;28;20447;-66
2021/10/27 00:16:54;;;;;;;4.40;2.75;;;9.60;99.90;;;;;;5036945;28;19921;-65
2021/10/27 00:19:19;;;;;;;;;;;9.70;99.90;;;;;;5024572;28;20045;-65
2021/10/27 00:21:45;;;;;;;4.30;3.20;;;9.70;99.90;;;;;;5027063;28;19917;-66
2021/10/27 00:24:11;;;;;;;8.90;3.85;;;9.70;99.90;;;;;;5029284;28;20485;-65
2021/10/27 00:26:36;;;;;;;;;;;9.70;99.90;;;;;;5035988;28;20049;-65
2021/10/27 00:29:02;;;;;;;5.53;3.40;;;9.80;99.90;;;;;;5032160;28;19924;-66
2021/10/27 00:31:28;;;;;;;;;;;9.70;99.90;;;;;;5035310;28;20049;-65
2021/10/27 00:33:53;;;;;;;6.63;2.90;;;9.80;99.90;;;;;;5034605;28;19970;-65
2021/10/27 00:36:19;;;;;;;;;;;9.80;99.90;;;;;;5033183;28;20513;-65
2021/10/27 00:38:46;;;;;;;7.40;3.20;;;9.80;99.90;;;;;;5036313;28;19924;-65
2021/10/27 00:41:11;;;;;;;8.52;3.55;;;9.80;99.90;;;;;;5035358;28;20038;-66
2021/10/27 00:43:37;;;;;;;;;;;9.90;99.90;;;;;;5029010;28;20040;-66
2021/10/27 00:46:04;;;;;;;8.23;3.45;;;9.90;99.90;;;;;;5026978;28;19927;-65
2021/10/27 00:48:30;;;;;;;6.07;2.88;;;9.90;99.90;;;;;;5035271;28;20095;-65
2021/10/27 00:50:55;;;;;;;;;;;10.00;99.90;;;;;;5041284;28;20037;-64
2021/10/27 00:53:21;;;;;;;7.35;3.30;;;10.00;99.90;;;;;;5030353;28;19925;-63
2021/10/27 00:55:47;;;;;;;;;;;9.90;99.90;;;;;;5028969;28;20042;-64
2021/10/27 00:58:13;;;;;;;5.88;3.20;;;10.00;99.90;;;;;;5026344;28;20529;-63
2021/10/27 01:00:39;;;;;;;;;;;10.00;99.90;;;;;;5024548;28;20033;-64
2021/10/27 01:03:06;;;;;;;6.53;2.67;;;10.00;99.90;;;;;;5029558;28;20363;-64
2021/10/27 01:05:31;;;;;;;5.40;2.80;;;10.00;99.90;;;;;;5028468;28;20050;-64
2021/10/27 01:07:57;;;;;;;;;;;10.10;99.90;;;;;;5032765;28;20037;-64
2021/10/27 01:10:23;;;;;;;3.22;2.47;;;10.10;99.90;;;;;;5042955;28;20269;-64
2021/10/27 01:12:48;;;;;;;;;;;10.10;99.90;;;;;;5032546;28;20045;-64
2021/10/27 01:15:14;;;;;;;4.35;2.33;;;10.10;99.90;;;;;;5027678;28;19925;-64
2021/10/27 01:17:40;;;;;;;;;;;10.10;99.90;;;;;;5024591;28;20184;-64
2021/10/27 01:20:06;;;;;;;7.30;3.08;;;10.10;99.90;;;;;;5025154;28;19917;-63
2021/10/27 01:22:38;;;;;;;;;;;10.10;99.90;;;;;;5041112;28;20056;-64
2021/10/27 01:25:07;;;;;;;5.28;2.90;;;10.10;99.90;;;;;;5043059;28;19921;-64
2021/10/27 01:27:38;;;;;;;4.65;2.97;;;10.20;99.90;;;;;;5027521;28;20145;-64
2021/10/27 01:30:05;;;;;;;10.45;3.40;;;10.10;99.90;;;;;;5026778;28;20108;-64
2021/10/27 01:32:37;;;;;;;12.65;7.00;;;10.10;99.90;;;;;;5026822;28;20041;-64
2021/10/27 01:35:03;;;;;;;7.75;5.30;;;10.10;99.90;;;;;;5044610;28;20041;-63
2021/10/27 01:37:29;;;;;;;10.95;5.88;;;10.10;99.90;;;;;;5029465;28;20045;-63
2021/10/27 01:39:55;;;;;;;;;;;10.10;99.90;;;;;;5045490;28;20305;-63
2021/10/27 01:42:21;;;;;;;8.65;4.32;;;10.10;99.90;;;;;;5035847;28;19939;-63
2021/10/27 01:44:47;;;;;;;;;;;10.10;99.90;;;;;;5025343;28;20037;-63
2021/10/27 01:47:13;;;;;;;6.00;3.30;;;10.10;99.90;;;;;;5024898;28;19940;-63
2021/10/27 01:49:38;;;;;;;;;;;10.10;99.90;;;;;;5039259;28;20041;-65
2021/10/27 01:52:04;;;;;;;4.57;2.70;;;10.10;99.90;;;;;;5031311;28;19925;-62
2021/10/27 01:54:31;;;;;;;9.13;2.33;;;10.10;99.90;;;;;;5041116;28;21088;-64
2021/10/27 01:56:57;;;;;;;3.50;2.47;;;10.10;99.90;;;;;;5043778;28;20041;-64
2021/10/27 01:59:23;;;;;;;5.45;2.90;;;10.10;99.90;;;;;;5041512;28;20044;-65
2021/10/27 02:01:52;;;;;;;5.13;2.35;;;10.10;99.90;;;;;;5023086;28;20048;-65
2021/10/27 02:04:19;;;;;;;3.30;2.47;;;10.10;99.90;;;;;;5038282;28;20037;-65
2021/10/27 02:06:44;;;;;;;5.50;2.70;;;10.00;99.90;;;;;;5033543;28;20461;-66
2021/10/27 02:09:10;;;;;;;;;;;10.00;99.90;;;;;;5045815;28;20037;-65
2021/10/27 02:11:36;;;;;;;4.50;2.28;;;10.00;99.90;;;;;;5040956;28;19925;-65
2021/10/27 02:14:01;;;;;;;;;;;10.10;99.90;;;;;;5039939;28;20032;-66
2021/10/27 02:16:28;;;;;;;17.67;3.38;;;10.10;99.90;;;;;;5064384;28;19920;-65
2021/10/27 02:18:54;;;;;;;3.28;2.25;;;10.10;99.90;;;;;;5070755;28;20041;-67
2021/10/27 02:21:19;;;;;;;7.50;2.70;;;10.10;99.90;;;;;;5070653;28;20373;-64
2021/10/27 02:23:45;;;;;;;;;;;10.10;99.90;;;;;;5075369;28;20032;-64
2021/10/27 02:26:11;;;;;;;3.38;2.58;;;10.10;99.90;;;;;;5055464;28;19920;-65
2021/10/27 02:28:37;;;;;;;;;;;10.10;99.90;;;;;;5065672;28;20040;-66
2021/10/27 02:31:03;;;;;;;4.65;2.30;;;10.10;99.90;;;;;;5057053;28;19924;-66
2021/10/27 02:33:29;;;;;;;;;;;10.10;99.90;;;;;;5045537;28;20037;-66
2021/10/27 02:35:54;;;;;;;5.13;3.13;;;10.10;99.90;;;;;;5039425;28;20686;-65
2021/10/27 02:38:20;;;;;;;;;;;10.10;99.90;;;;;;5032572;28;20037;-64
2021/10/27 02:40:46;;;;;;;3.38;2.50;;;10.10;99.90;;;;;;5039876;28;19925;-67
2021/10/27 02:43:13;;;;;;;3.65;2.50;;;10.10;99.90;;;;;;5024782;28;20047;-64
2021/10/27 02:45:39;;;;;;;4.05;2.90;;;10.10;99.90;;;;;;5028818;28;20045;-66
2021/10/27 02:48:05;;;;;;;;;;;10.10;99.90;;;;;;5047412;28;20470;-65
2021/10/27 02:50:30;;;;;;;4.22;2.83;;;10.10;99.90;;;;;;5043712;28;19921;-65
2021/10/27 02:52:56;;;;;;;;;;;10.10;99.90;;;;;;5044008;28;20063;-65
2021/10/27 02:55:21;;;;;;;5.20;2.42;;;10.20;99.90;;;;;;5041875;28;19923;-65
2021/10/27 02:57:47;;;;;;;;;;;10.10;99.90;;;;;;5044325;28;20488;-68
2021/10/27 03:00:13;;;;;;;4.95;2.63;;;10.10;99.90;;;;;;5041243;28;20621;-66
2021/10/27 03:02:39;;;;;;;;;;;10.10;99.90;;;;;;5047229;28;20037;-65
2021/10/27 03:05:06;;;;;;;5.03;2.95;;;10.10;99.90;;;;;;5053305;28;19917;-67
2021/10/27 03:07:32;;;;;;;3.28;2.55;;;10.20;99.90;;;;;;5050485;28;20083;-65
2021/10/27 03:09:57;;;;;;;;;;;10.20;99.90;;;;;;5055895;28;20076;-66
2021/10/27 03:12:23;;;;;;;3.72;2.28;;;10.20;99.90;;;;;;5045564;28;19923;-65
2021/10/27 03:14:48;;;;;;;;;;;10.20;99.90;;;;;;5046887;28;20041;-63
2021/10/27 03:17:17;;;;;;;6.18;2.22;;;10.20;99.90;;;;;;5042971;28;19923;-65
2021/10/27 03:19:44;;;;;;;5.22;2.40;;;10.20;99.90;;;;;;5045330;28;20052;-64
2021/10/27 03:22:09;;;;;;;6.25;2.75;;;10.20;99.90;;;;;;5050839;28;20032;-66
2021/10/27 03:24:35;;;;;;;;;;;10.20;99.90;;;;;;5058181;28;20094;-66
2021/10/27 03:27:01;;;;;;;7.57;2.78;;;10.20;99.90;;;;;;5052086;28;20059;-65
2021/10/27 03:29:26;;;;;;;;;;;10.20;99.90;;;;;;5048524;28;20045;-65
2021/10/27 03:31:52;;;;;;;5.38;2.45;;;10.30;99.90;;;;;;5046808;28;19917;-65
2021/10/27 03:34:17;;;;;;;;;;;10.30;99.90;;;;;;5045913;28;20044;-65
2021/10/27 03:36:44;;;;;;;4.57;2.47;;;10.30;99.90;;;;;;5045085;28;19921;-65
2021/10/27 03:39:09;;;;;;;4.95;2.20;;;10.30;99.90;;;;;;5061576;28;20071;-66
2021/10/27 03:41:35;;;;;;;;;;;10.30;99.90;;;;;;5066755;28;20064;-65
2021/10/27 03:44:01;;;;;;;5.15;2.88;;;10.40;99.90;;;;;;5048712;28;19924;-66
2021/10/27 03:46:26;;;;;;;;;;;10.40;99.90;;;;;;5044263;28;20042;-65
2021/10/27 03:48:52;;;;;;;11.25;3.42;;;10.30;99.90;;;;;;5047368;28;19960;-66
2021/10/27 03:51:18;;;;;;;;;;;10.40;99.90;;;;;;5053600;28;20090;-66
2021/10/27 03:53:43;;;;;;;5.50;3.38;;;10.40;99.90;;;;;;5053006;28;19924;-66
2021/10/27 03:56:09;;;;;;;;;;;10.40;99.90;;;;;;5054528;28;20419;-65
2021/10/27 03:58:35;;;;;;;7.35;3.55;;;10.40;99.90;;;;;;5066371;28;19939;-65
2021/10/27 04:01:01;;;;;;;;;;;10.40;99.90;;;;;;5065182;28;20024;-65
2021/10/27 04:03:27;;;;;;;11.18;3.80;;;10.50;99.90;;;;;;5065338;28;19918;-65
2021/10/27 04:05:52;;;;;;;;;;;10.40;99.90;;;;;;5064439;28;20047;-65
2021/10/27 04:08:18;;;;;;;9.23;4.55;;;10.40;99.90;;;;;;5063875;28;19916;-66
2021/10/27 04:10:47;;;;;;;7.65;4.30;;;10.50;99.90;;;;;;5061173;28;20413;-65
2021/10/27 04:13:14;;;;;;;14.65;4.88;;;10.50;99.90;;;;;;5048851;28;20041;-65
2021/10/27 04:15:41;;;;;;;10.30;4.60;;;10.50;99.90;;;;;;5048208;28;20734;-66
2021/10/27 04:18:07;;;;;;;14.05;4.78;;;10.50;99.90;;;;;;5048191;28;20049;-65
2021/10/27 04:20:32;;;;;;;;;;;10.50;99.90;;;;;;5048779;28;20029;-66
2021/10/27 04:22:58;;;;;;;10.32;4.15;;;10.50;99.90;;;;;;5051861;28;19924;-66
2021/10/27 04:25:24;;;;;;;;;;;10.50;99.90;;;;;;5066805;28;20041;-65
2021/10/27 04:27:49;;;;;;;11.38;4.75;;;10.50;99.90;;;;;;5051986;28;19917;-65
2021/10/27 04:30:15;;;;;;;;;;;10.50;99.90;;;;;;5047515;28;20036;-66
2021/10/27 04:32:43;;;;;;;10.57;5.10;;;10.50;99.90;;;;;;5048538;28;19921;-66
2021/10/27 04:35:09;;;;;;;7.53;5.50;;;10.50;99.90;;;;;;5048420;28;20094;-66
2021/10/27 04:37:39;;;;;;;11.77;5.88;;;10.50;99.90;;;;;;5054280;28;20059;-65
2021/10/27 04:40:10;;;;;;;7.97;5.30;;;10.50;99.90;;;;;;5064732;28;20040;-65
2021/10/27 04:42:37;;;;;;;9.70;4.97;;;10.50;99.90;;;;;;5078692;28;20500;-66
2021/10/27 04:45:05;;;;;;;8.55;5.60;;;10.50;99.90;;;;;;5056255;28;20534;-66
2021/10/27 04:47:31;;;;;;;8.82;4.72;;;10.50;99.90;;;;;;5062709;28;20078;-66
2021/10/27 04:49:57;;;;;;;;;;;10.50;99.90;;;;;;5063310;28;20967;-66
2021/10/27 04:52:24;;;;;;;14.25;5.05;;;10.50;99.90;;;;;;5061156;28;19923;-66
2021/10/27 04:54:50;;;;;;;10.68;5.30;;;10.60;99.90;;;;;;5050459;28;20123;-67
2021/10/27 04:57:15;;;;;;;;;;;10.60;99.90;;;;;;5060241;28;20131;-65
2021/10/27 04:59:44;;;;;;;8.80;4.90;;;10.60;99.90;;;;;;5058273;28;19955;-65
2021/10/27 05:02:16;;;;;;;12.15;5.95;;;10.60;99.90;;;;;;5062932;28;20041;-65
2021/10/27 05:04:42;;;;;;;7.95;4.40;;;10.60;99.90;;;;;;5066803;28;20040;-66
2021/10/27 05:07:10;;;;;;;14.43;4.90;;;10.60;99.90;;;;;;5064259;28;20034;-65
2021/10/27 05:09:36;;;;;;;7.70;4.72;;;10.60;99.90;;;;;;5054853;28;20045;-66
2021/10/27 05:12:04;;;;;;;;;;;10.60;99.90;;;;;;5050830;28;20047;-66
2021/10/27 05:14:30;;;;;;;8.15;5.05;;;10.60;99.90;;;;;;5061146;28;19916;-65
2021/10/27 05:16:56;;;;;;;6.22;4.07;;;10.60;99.90;;;;;;5044271;28;20051;-66
2021/10/27 05:19:21;;;;;;;;;;;10.60;99.90;;;;;;5047575;28;20041;-65
2021/10/27 05:21:47;;;;;;;9.02;4.90;;;10.60;99.90;;;;;;5046521;28;20015;-66
2021/10/27 05:24:13;;;;;;;;;;;10.70;99.90;;;;;;5048018;28;20734;-65
2021/10/27 05:26:39;;;;;;;10.00;5.03;;;10.70;99.90;;;;;;5046100;28;20542;-66
2021/10/27 05:29:05;;;;;;;;;;;10.70;99.90;;;;;;5047028;28;20103;-66
2021/10/27 05:31:30;;;;;;;9.63;6.30;;;10.70;99.90;;;;;;5054822;28;19939;-66
2021/10/27 05:33:56;;;;;;;;;;;10.70;99.90;;;;;;5049652;28;20041;-66
2021/10/27 05:36:21;;;;;;;19.02;10.18;;;10.60;99.90;;;;;;5047128;28;19921;-66
2021/10/27 05:38:47;;;;;;;;;;;10.60;99.90;;;;;;5057368;28;20044;-66
2021/10/27 05:41:13;;;;;;;13.85;6.63;;;10.60;99.90;;;;;;5058046;28;20553;-65
2021/10/27 05:43:39;;;;;;;;;;;10.60;99.90;;;;;;5059592;23;20051;-65
2021/10/27 05:46:04;;;;;;;9.82;5.97;;;10.60;99.90;;;;;;5057557;28;19920;-66
2021/10/27 05:48:41;;;;;;;;;;;10.60;99.90;;;;;;5060204;28;20097;-65
2021/10/27 05:56:19;;;;;;;;;;;10.60;99.90;;;;;;5054422;28;19917;-67
2021/10/27 05:58:45;;;;;;;;;;;10.60;99.90;;;;;;5065463;28;19934;-63
2021/10/27 06:01:10;;;;;;;;;;;10.70;99.90;;;;;;5060895;28;19920;-64
2021/10/27 06:03:36;;;;;;;;;;;10.70;99.90;;;;;;5061269;28;20473;-66
2021/10/27 06:06:02;;;;;;;;;;;10.70;99.90;;;;;;5054443;28;20043;-66
2021/10/27 06:08:27;;;;;;;;;;;10.70;99.90;;;;;;5053858;28;20002;-67
2021/10/27 06:10:56;;;;;;;;;;;10.70;99.90;;;;;;5054839;28;20022;-66
2021/10/27 06:13:22;;;;;;;;;;;10.80;99.90;;;;;;5046753;28;19921;-64
2021/10/27 06:15:48;;;;;;;;;;;10.80;99.90;;;;;;5044514;28;19974;-66
2021/10/27 06:18:14;;;;;;;;;;;10.80;99.90;;;;;;5044578;28;19920;-66
2021/10/27 06:20:40;;;;;;;;;;;10.80;99.90;;;;;;5046263;28;19921;-66
2021/10/27 06:23:05;;;;;;;;;;;10.80;99.90;;;;;;5046209;28;20679;-68
2021/10/27 06:25:31;;;;;;;;;;;10.80;99.90;;;;;;5052520;28;19991;-65
2021/10/27 06:28:05;;;;;;;;;;;10.80;99.90;;;;;;5052033;28;20560;-65
2021/10/27 06:30:55;;;;;;;;;;;10.90;99.90;;;;;;5041840;28;19921;-64
2021/10/27 06:36:04;;;;;;;;;;;10.80;99.90;;;;;;5044096;28;19920;-66
2021/10/27 06:48:48;;;;;;;;;;;10.90;99.90;;;;;;5046556;28;19921;-66
2021/10/27 06:51:14;;;;;;;;;;;10.90;99.90;;;;;;5045767;28;19916;-65
2021/10/27 06:53:40;;;;;;;;;;;10.90;99.90;;;;;;5051502;28;19924;-64
2021/10/27 06:56:12;;;;;;;;;;;10.90;99.90;;;;;;5056149;28;20372;-65
2021/10/27 06:58:49;;;;;;;;;;;10.90;99.90;;;;;;5044996;28;21030;-65
2021/10/27 07:01:20;;;;;;;;;;;10.90;99.90;;;;;;5046710;28;19916;-65
2021/10/27 07:04:02;;;;;;;;;;;10.90;99.90;;;;;;5048054;28;19923;-64
2021/10/27 07:17:14;;;;;;;;;;;11.00;99.90;;;;;;5046120;28;19924;-65
2021/10/27 07:19:40;;;;;;;;;;;11.00;99.90;;;;;;5046471;28;20651;-65
2021/10/27 07:22:06;;;;;;;;;;;11.00;99.90;;;;;;5046689;28;19917;-65
2021/10/27 07:24:31;;;;;;;;;;;11.00;99.90;;;;;;5055713;28;19917;-67
2021/10/27 07:27:01;;;;;;;;;;;11.00;99.90;;;;;;5044705;28;19927;-65
2021/10/27 07:29:27;;;;;;;;;;;11.10;99.90;;;;;;5048593;28;19917;-65
2021/10/27 07:31:53;;;;;;;;;;;11.10;99.90;;;;;;5049779;28;19931;-65
2021/10/27 07:34:19;;;;;;;;;;;11.10;99.90;;;;;;5050483;28;19917;-66
2021/10/27 07:42:14;;;;;;;;;;;11.20;99.90;;;;;;5049719;28;19967;-65
2021/10/27 07:44:39;;;;;;;;;;;11.20;99.90;;;;;;5058298;28;19994;-67
2021/10/27 07:47:05;;;;;;;;;;;11.20;99.90;;;;;;5054115;28;19921;-65
2021/10/27 07:49:30;;;;;;;;;;;11.20;99.90;;;;;;5049966;28;19924;-65
2021/10/27 07:51:56;;;;;;;;;;;11.20;99.90;;;;;;5050422;28;20007;-64
2021/10/27 07:54:22;;;;;;;;;;;11.20;99.90;;;;;;5050288;28;19924;-65
2021/10/27 07:56:49;;;;;;;;;;;11.20;99.90;;;;;;5048721;28;19927;-64
2021/10/27 07:59:15;;;;;;;;;;;11.20;99.90;;;;;;5047301;28;19964;-65
2021/10/27 08:01:40;;;;;;;;;;;11.20;99.90;;;;;;5056489;28;20372;-65
2021/10/27 08:04:06;;;;;;;;;;;11.20;99.90;;;;;;5065957;28;20361;-65
2021/10/27 08:06:32;;;;;;;;;;;11.20;99.90;;;;;;5048456;28;20637;-65
2021/10/27 08:08:57;;;;;;;;;;;11.20;99.90;;;;;;5058187;28;19916;-67
2021/10/27 08:11:26;;;;;;;;;;;11.20;99.90;;;;;;5049115;28;19920;-65
2021/10/27 08:13:51;;;;;;;;;;;11.30;99.90;;;;;;5045691;28;19916;-66
2021/10/27 08:16:17;;;;;;;;;;;11.30;99.90;;;;;;5045056;28;19917;-64
2021/10/27 08:18:43;;;;;;;;;;;11.30;99.90;;;;;;5047461;28;19928;-66
2021/10/27 08:21:09;;;;;;;;;;;11.30;99.90;;;;;;5030973;28;19921;-65
2021/10/27 08:23:36;;;;;;;;;;;11.30;99.90;;;;;;5055314;28;19917;-67
2021/10/27 08:26:07;;;;;;;;;;;11.40;99.90;;;;;;5062343;28;19994;-65
2021/10/27 08:28:41;;;;;;;;;;;11.40;99.90;;;;;;5046944;28;19917;-67
2021/10/27 08:31:17;;;;;;;;;;;11.40;99.90;;;;;;5048313;28;19943;-65
2021/10/27 08:36:27;;;;;;;;;;;11.40;99.90;;;;;;5048007;28;19916;-65
2021/10/27 08:38:56;;;;;;;;;;;11.40;99.90;;;;;;5061244;28;19920;-67
2021/10/27 08:41:22;;;;;;;;;;;11.50;99.90;;;;;;5052245;28;20304;-65
2021/10/27 08:43:47;;;;;;;;;;;11.40;99.90;;;;;;5048040;28;19917;-66
2021/10/27 08:46:13;;;;;;;;;;;11.50;99.90;;;;;;5046629;28;20006;-66
2021/10/27 08:48:42;;;;;;;;;;;11.50;99.90;;;;;;5049109;28;19917;-66
2021/10/27 08:51:10;;;;;;;;;;;11.50;99.90;;;;;;5044937;28;19924;-65
2021/10/27 08:53:36;;;;;;;;;;;11.50;99.90;;;;;;5046985;28;19923;-65
2021/10/27 08:56:04;;;;;;;;;;;11.40;99.90;;;;;;5046848;28;20358;-64
2021/10/27 08:58:38;;;;;;;;;;;11.40;99.90;;;;;;5046712;28;20277;-66
2021/10/27 09:01:13;;;;;;;;;;;11.40;99.90;;;;;;5057043;28;19923;-65
2021/10/27 09:04:09;;;;;;;;;;;11.40;99.90;;;;;;5059938;28;20380;-66
2021/10/27 09:06:44;;;;;;;;;;;11.40;99.90;;;;;;5046683;28;19921;-66
2021/10/27 09:09:34;;;;;;;;;;;11.50;99.90;;;;;;5060931;28;19917;-66
2021/10/27 09:38:53;;;;;;;;;;;11.80;99.90;;;;;;5059187;28;20331;-63
2021/10/27 09:41:38;;;;;;;;;;;11.80;99.90;;;;;;5046048;28;20553;-65
2021/10/27 09:44:26;;;;;;;;;;;11.90;99.90;;;;;;5050240;28;20346;-66
2021/10/27 09:47:28;;;;;;;;;;;12.00;99.90;;;;;;5033069;28;19921;-66
2021/10/27 10:06:26;;;;;;;;;;;12.10;99.90;;;;;;5049227;28;20323;-64
2021/10/27 10:08:52;;;;;;;;;;;12.10;99.90;;;;;;5066008;28;19927;-66
2021/10/27 10:11:18;;;;;;;;;;;12.10;99.90;;;;;;5052304;28;19921;-64
2021/10/27 10:13:48;;;;;;;;;;;12.10;99.90;;;;;;5048292;28;19921;-65
2021/10/27 10:16:15;;;;;;;;;;;12.10;99.90;;;;;;5044952;28;20014;-66
2021/10/27 10:18:42;;;;;;;;;;;12.20;99.90;;;;;;5046303;28;19917;-63
2021/10/27 10:21:08;;;;;;;;;;;12.20;99.90;;;;;;5046943;28;19923;-64
2021/10/27 10:23:34;;;;;;;;;;;12.20;99.90;;;;;;5046479;28;19921;-65
2021/10/27 10:26:06;;;;;;;;;;;12.20;99.90;;;;;;5048428;28;19934;-65
2021/10/27 10:28:41;;;;;;;;;;;12.20;99.90;;;;;;5054169;28;19916;-66
2021/10/27 10:31:08;;;;;;;;;;;12.30;99.90;;;;;;5045653;28;19959;-65
2021/10/27 10:33:44;;;;;;;;;;;12.20;99.90;;;;;;5047432;28;19931;-66
2021/10/27 10:36:26;;;;;;;;;;;12.20;99.90;;;;;;5046602;28;20434;-66
2021/10/27 11:03:25;;;;;;;;;;;12.40;99.90;;;;;;5054252;28;19960;-65
2021/10/27 11:39:45;;;;;;;;;;;12.60;99.90;;;;;;5052515;28;20384;-64
2021/10/27 11:42:22;;;;;;;;;;;12.70;99.90;;;;;;5066037;28;19974;-66
2021/10/27 11:47:36;;;;;;;;;;;12.70;99.90;;;;;;5048533;28;19938;-64
2021/10/27 11:50:03;;;;;;;;;;;12.60;99.90;;;;;;5030819;28;20401;-65
2021/10/27 11:52:32;;;;;;;;;;;12.70;99.90;;;;;;5044960;28;19921;-65
2021/10/27 11:54:59;;;;;;;;;;;12.70;99.90;;;;;;5045888;28;19921;-63
2021/10/27 11:57:28;;;;;;;;;;;12.70;99.90;;;;;;5043001;28;19927;-66
2021/10/27 11:59:54;;;;;;;;;;;12.70;99.90;;;;;;5048681;28;19916;-65
2021/10/27 12:02:20;;;;;;;;;;;12.80;99.90;;;;;;5051503;28;19917;-62
2021/10/27 12:04:45;;;;;;;;;;;12.80;99.90;;;;;;5050228;28;19974;-66
2021/10/27 12:07:15;;;;;;;;;;;12.80;99.90;;;;;;5047106;28;19924;-65
2021/10/27 12:12:32;;;;;;;;;;;12.80;99.90;;;;;;5057347;28;19952;-66
2021/10/27 12:17:58;;;;;;;;;;;12.80;99.90;;;;;;5053103;28;19959;-65
2021/10/27 12:20:44;;;;;;;;;;;12.90;99.90;;;;;;5058701;28;20123;-65
2021/10/27 12:23:18;;;;;;;;;;;12.80;99.90;;;;;;5048709;28;19920;-65
2021/10/27 12:25:43;;;;;;;;;;;12.90;99.90;;;;;;5065091;28;20015;-67
2021/10/27 12:28:32;;;;;;;;;;;12.90;99.90;;;;;;5065879;28;19999;-64
2021/10/27 12:31:12;;;;;;;;;;;12.90;99.90;;;;;;5045100;28;20565;-65
2021/10/27 12:33:39;;;;;;;;;;;13.10;99.90;;;;;;5049312;28;19928;-65
2021/10/27 12:36:39;;;;;;;;;;;13.20;99.90;;;;;;5047518;28;20657;-66
2021/10/27 12:41:48;;;;;;;;;;;13.40;99.90;;;;;;5052840;28;19921;-67
2021/10/27 12:44:22;;;;;;;;;;;13.40;99.90;;;;;;5048782;28;20584;-65
2021/10/27 12:47:01;;;;;;;;;;;13.40;99.90;;;;;;5046416;28;20289;-66
2021/10/27 12:49:26;;;;;;;;;;;13.30;99.90;;;;;;5043901;28;19917;-65
2021/10/27 12:51:52;;;;;;;;;;;13.20;99.90;;;;;;5047542;28;19916;-66
2021/10/27 12:54:27;;;;;;;;;;;13.20;99.90;;;;;;5048523;28;20014;-65
2021/10/27 12:57:02;;;;;;;;;;;13.20;99.90;;;;;;5047083;28;19921;-65
2021/10/27 12:59:31;;;;;;;;;;;13.20;99.90;;;;;;5045176;28;20407;-66
2021/10/27 13:02:22;;;;;;;;;;;13.10;99.90;;;;;;5046922;28;19916;-65
2021/10/27 13:07:20;;;;;;;;;;;12.90;99.90;;;;;;5050188;28;19974;-65
2021/10/27 13:15:06;;;;;;;;;;;12.90;99.90;;;;;;5047823;28;20008;-65
2021/10/27 13:20:09;;;;;;;;;;;12.90;99.90;;;;;;5045456;28;19917;-65
2021/10/27 13:23:26;;;;;;;;;;;12.90;99.90;;;;;;5045263;28;19963;-65
2021/10/27 13:31:00;;;;;;;;;;;13.00;99.90;;;;;;5047570;28;20311;-65
2021/10/27 13:33:26;;;;;;;;;;;13.00;99.90;;;;;;5050580;28;20343;-65
2021/10/27 13:35:51;;;;;;;;;;;13.00;99.90;;;;;;5044421;28;19920;-65
2021/10/27 13:38:19;;;;;;;;;;;13.00;99.90;;;;;;5052944;28;19924;-65
2021/10/27 13:40:46;;;;;;;;;;;13.00;99.90;;;;;;5053066;28;19917;-65
2021/10/27 13:43:37;;;;;;;;;;;13.00;99.90;;;;;;5047754;28;19916;-65
2021/10/27 13:46:50;;;;;;;;;;;13.00;99.90;;;;;;5044941;28;20285;-65
2021/10/27 14:07:58;;;;;;;;;;;12.80;99.90;;;;;;5054441;28;19924;-65
2021/10/27 14:10:33;;;;;;;;;;;12.80;99.90;;;;;;5053877;28;19917;-65
2021/10/27 14:14:06;;;;;;;;;;;12.70;99.90;;;;;;5046385;28;20381;-65
2021/10/27 14:16:11;;;;;;;;;;;12.70;99.90;;;;;;5026437;28;19916;-65
2021/10/27 14:18:50;;;;;;;;;;;12.70;99.90;;;;;;5045344;28;19929;-65
2021/10/27 15:21:14;;;;;;;;;;;12.30;99.90;;;;;;5046036;28;19917;-65
2021/10/27 15:29:07;;;;;;;;;;;12.10;99.90;;;;;;5042279;28;19927;-65
2021/10/27 15:31:42;;;;;;;;;;;12.10;99.90;;;;;;5041229;28;19939;-65
2021/10/27 15:42:34;;;;;;;;;;;11.90;99.90;;;;;;5058052;28;19921;-64
2021/10/27 15:45:36;;;;;;;;;;;11.90;99.90;;;;;;5046294;28;20416;-65
2021/10/27 15:50:51;;;;;;;;;;;11.80;99.90;;;;;;5047985;28;20011;-66
2021/10/27 15:53:18;;;;;;;;;;;11.80;99.90;;;;;;5049063;28;20372;-65
2021/10/27 15:55:43;;;;;;;;;;;11.70;99.90;;;;;;5052164;28;20386;-65
2021/10/27 15:58:09;;;;;;;;;;;11.70;99.90;;;;;;5048947;28;19920;-65
2021/10/27 16:00:38;;;;;;;;;;;11.60;99.90;;;;;;5056969;28;19928;-65
2021/10/27 16:03:06;;;;;;;;;;;11.60;99.90;;;;;;5057043;28;19916;-65
2021/10/27 16:05:32;;;;;;;;;;;11.60;99.90;;;;;;5049605;28;20003;-65
2021/10/27 16:07:58;;;;;;;;;;;11.60;99.90;;;;;;5056567;28;20014;-66
2021/10/27 16:10:23;;;;;;;;;;;11.60;99.90;;;;;;5058439;28;20358;-66
2021/10/27 16:12:49;;;;;;;;;;;11.50;99.90;;;;;;5056215;28;19920;-66
2021/10/27 16:15:21;;;;;;;;;;;11.40;99.90;;;;;;5049123;28;19924;-66
2021/10/27 16:17:47;;;;;;;;;;;11.40;99.90;;;;;;5046568;28;20392;-66
2021/10/27 16:20:12;;;;;;;;;;;11.30;99.90;;;;;;5045876;28;19917;-66
2021/10/27 16:22:38;;;;;;;;;;;11.30;99.90;;;;;;5045861;28;20002;-64
2021/10/27 16:25:04;;;;;;;;;;;11.20;99.90;;;;;;5046002;28;19966;-66
2021/10/27 16:27:30;;;;;;;;;;;11.30;99.90;;;;;;5043861;28;19954;-65
2021/10/27 16:29:56;;;;;;;;;;;11.20;99.90;;;;;;5045655;28;19928;-66
2021/10/27 16:32:21;;;;;;;;;;;11.10;99.90;;;;;;5048147;28;19952;-66
2021/10/27 16:34:47;;;;;;;;;;;11.10;99.90;;;;;;5048779;28;20580;-65
2021/10/27 16:37:13;;;;;;;;;;;11.10;99.90;;;;;;5051281;28;19947;-63
2021/10/27 16:39:38;;;;;;;;;;;11.10;99.90;;;;;;5053543;28;19960;-65
2021/10/27 16:42:04;;;;;;;;;;;11.10;99.90;;;;;;5047594;28;19970;-66
2021/10/27 16:44:29;;;;;;;;;;;11.00;99.90;;;;;;5055044;28;19921;-65
2021/10/27 16:46:55;;;;;;;;;;;11.00;99.90;;;;;;5053505;28;19921;-66
2021/10/27 16:49:21;;;;;;;;;;;11.00;99.90;;;;;;5047299;28;19917;-64
2021/10/27 16:51:46;;;;;;;;;;;11.00;99.90;;;;;;5047632;28;20404;-67
2021/10/27 16:54:12;;;;;;;;;;;11.00;99.90;;;;;;5046242;28;19967;-65
2021/10/27 16:56:38;;;;;;;;;;;11.00;99.90;;;;;;5046189;28;19917;-65
2021/10/27 16:59:04;;;;;;;;;;;11.00;99.90;;;;;;5027945;28;20304;-65
2021/10/27 17:01:29;;;;;;;;;;;10.90;99.90;;;;;;5051202;28;19916;-64
2021/10/27 17:03:55;;;;;;;;;;;10.90;99.90;;;;;;5052542;28;19924;-66
2021/10/27 17:06:20;;;;;;;;;;;10.90;99.90;;;;;;5044166;28;20040;-64
2021/10/27 17:08:46;;;;;;;;;;;10.80;99.90;;;;;;5057054;28;19928;-66
2021/10/27 17:11:12;;;;;;;;;;;10.80;99.90;;;;;;5053084;28;19916;-66
2021/10/27 17:13:38;;;;;;;;;;;10.80;99.90;;;;;;5030173;28;20495;-65
2021/10/27 17:16:03;;;;;;;;;;;10.70;99.90;;;;;;5045234;28;20007;-64
2021/10/27 17:18:31;;;;;;;;;;;10.70;99.90;;;;;;5044500;28;19934;-66
2021/10/27 17:20:58;;;;;;;;;;;10.70;99.90;;;;;;5044519;28;19912;-66
2021/10/27 17:23:29;;;;;;;;;;;10.70;99.90;;;;;;5044597;28;20584;-64
2021/10/27 17:25:54;;;;;;;;;;;10.70;99.90;;;;;;5045517;28;19924;-65
2021/10/27 17:28:20;;;;;;;;;;;10.70;99.90;;;;;;5044998;28;19916;-66
2021/10/27 17:30:47;;;;;;;;;;;10.60;99.90;;;;;;5047100;28;19916;-66
2021/10/27 17:33:14;;;;;;;;;;;10.70;99.90;;;;;;5047323;28;19926;-65
2021/10/27 17:35:39;;;;;;;;;;;10.60;99.90;;;;;;5046889;28;19979;-63
2021/10/27 17:38:05;;;;;;;;;;;10.60;99.90;;;;;;5053941;28;19990;-63
2021/10/27 17:40:37;;;;;;;;;;;10.60;99.90;;;;;;5054389;28;19916;-64
2021/10/27 17:43:03;;;;;;;;;;;10.60;99.90;;;;;;5044589;28;19917;-63
2021/10/27 17:45:37;;;;;;;;;;;10.50;99.90;;;;;;5042504;28;19920;-65
2021/10/27 17:48:11;;;;;;;;;;;10.50;99.90;;;;;;5051254;28;19964;-65
2021/10/27 17:58:35;;;;;;;;;;;10.50;99.90;;;;;;5044906;28;19971;-65
2021/10/27 18:01:02;;;;;;;;;;;10.50;99.90;;;;;;5053176;28;20462;-65
2021/10/27 18:03:30;;;;;;;;;;;10.50;99.90;;;;;;5055373;28;19922;-66
2021/10/27 18:05:56;;;;;;;;;;;10.40;99.90;;;;;;5049972;28;19928;-66
2021/10/27 18:08:23;;;;;;;;;;;10.50;99.90;;;;;;5058355;28;19913;-64
2021/10/27 18:10:52;;;;;;;;;;;10.40;99.90;;;;;;5055086;28;19927;-64
2021/10/27 18:13:22;;;;;;;;;;;10.40;99.90;;;;;;5046473;28;19927;-65
2021/10/27 18:15:50;;;;;;;;;;;10.40;99.90;;;;;;5045302;28;19943;-64
2021/10/27 18:18:37;;;;;;;;;;;10.40;99.90;;;;;;5045769;28;20007;-65
2021/10/27 18:21:09;;;;;;;;;;;10.40;99.90;;;;;;5055963;28;19952;-65
2021/10/27 18:26:24;;;;;;;;;;;10.40;99.90;;;;;;5045757;28;20043;-66
2021/10/27 18:37:34;;;;;;;;;;;10.40;99.90;;;;;;5054926;28;19916;-65
2021/10/27 18:40:00;;;;;;;;;;;10.40;99.90;;;;;;5055769;28;19920;-65
2021/10/27 18:43:06;;;;;;;;;;;10.40;99.90;;;;;;5046000;28;19923;-63
2021/10/27 18:45:19;;;;;;;;;;;10.40;99.90;;;;;;5042892;28;19920;-64
2021/10/27 18:47:45;;;;;;;;;;;10.30;99.90;;;;;;5046784;28;19924;-65